CG Hudson — NCWX — position and weather

sailwx.info

Track history (hours):
 
Tides and Currents Weather Stations Pressure Air Temp Water Temp Dewpoint Dewpoint Depression Visibility Wind Speed Wind Dir Waves Ship Positions

CG Hudson

Last reported at 2017-Sep-16 18:12 UTC. Time now 2017-Sep-26 11:14 UTC.
Position N 25°30' W 080°14'.
Warning: this ship's position is 9 days out of date.

Length 48 m; draft 2 m.

Type: Military. MMSI: 366999791.

Date/timePositionNaut miles runAvg speedWind from/ knotsBaromVisibWave heightAir tempDewpointWater temp
2017-Sep-16 18:12N 25°30' W 080°14'2 7.0
2017-Sep-16 17:58N 25°31' W 080°14'4 7.6
2017-Sep-16 17:30N 25°35' W 080°13'4 7.9
2017-Sep-16 17:00N 25°39' W 080°12'4 8.2
2017-Sep-16 16:30N 25°43' W 080°11'4 7.4
2017-Sep-16 16:01N 25°46' W 080°11'2 3.3
2017-Sep-16 15:24N 25°46' W 080°09'  
2017-Sep-13 21:12N 25°46' W 080°09'1 2.5
2017-Sep-13 21:00N 25°46' W 080°08'3 6.5
2017-Sep-13 20:30N 25°48' W 080°06'5 9.4
2017-Sep-13 20:00N 25°53' W 080°05'5 9.5
2017-Sep-13 19:29N 25°58' W 080°05'51 7.7
2017-Sep-13 12:51N 26°49' W 080°03'4 6.0
2017-Sep-13 12:17N 26°52' W 080°04'2 6.1
2017-Sep-13 12:00N 26°54' W 080°05'2 4.4
2017-Sep-13 11:30N 26°56' W 080°05'0 0.0
2017-Sep-13 11:00N 26°56' W 080°05'0 0.0
2017-Sep-13 10:30N 26°56' W 080°05'0 0.0
2017-Sep-13 09:57N 26°56' W 080°05'0 0.0
2017-Sep-13 09:30N 26°56' W 080°05'0 0.0
2017-Sep-13 09:00N 26°56' W 080°05'0 0.0
2017-Sep-13 08:27N 26°56' W 080°05'0 0.0
2017-Sep-13 07:57N 26°56' W 080°05'0 0.0
2017-Sep-13 07:30N 26°56' W 080°05'0 0.0
2017-Sep-13 07:00N 26°56' W 080°05'0 0.0
2017-Sep-13 06:30N 26°56' W 080°05'0 0.0
2017-Sep-13 05:59N 26°56' W 080°05'0 0.0
2017-Sep-13 05:26N 26°56' W 080°05'0 0.0
2017-Sep-13 04:56N 26°56' W 080°05'0 0.0
2017-Sep-13 04:27N 26°56' W 080°05'0 0.0
2017-Sep-13 03:57N 26°56' W 080°05'0 0.0
2017-Sep-13 03:30N 26°56' W 080°05'0 0.0
2017-Sep-13 02:54N 26°56' W 080°05'0 0.0
2017-Sep-13 02:27N 26°56' W 080°05'0 0.0
2017-Sep-13 02:00N 26°56' W 080°05'0 0.0
2017-Sep-13 01:27N 26°56' W 080°05'0 0.0
2017-Sep-13 00:54N 26°56' W 080°05'0 0.0
2017-Sep-13 00:30N 26°56' W 080°05'0 0.0
2017-Sep-12 23:57N 26°56' W 080°05'0 0.4
2017-Sep-12 23:30N 26°56' W 080°05'2 3.8
2017-Sep-12 23:00N 26°58' W 080°05'4 7.5
2017-Sep-12 22:30N 27°02' W 080°06'  
2017-Sep-07 21:20N 27°04' W 080°07'2 6.4
2017-Sep-07 21:01N 27°02' W 080°06'3 6.8
2017-Sep-07 20:30N 26°59' W 080°05'2 4.3
2017-Sep-07 20:00N 26°57' W 080°05'3 5.7
2017-Sep-07 19:31N 26°54' W 080°04'3 5.5
2017-Sep-07 18:54N 26°51' W 080°04'30 8.2
2017-Sep-07 15:13N 26°21' W 080°03'3 9.9
2017-Sep-07 14:58N 26°18' W 080°03'5 9.6
2017-Sep-07 14:29N 26°14' W 080°03'4 9.0
2017-Sep-07 14:00N 26°09' W 080°04'5 9.5
2017-Sep-07 13:30N 26°05' W 080°04'510.4
2017-Sep-07 13:00N 25°59' W 080°05'5 9.5
2017-Sep-07 12:30N 25°55' W 080°05'5 9.5
2017-Sep-07 12:00N 25°50' W 080°06'4 9.0
2017-Sep-07 11:31N 25°46' W 080°07'2 4.0
2017-Sep-07 10:59N 25°46' W 080°09'  
Track history (hours):
 
Tides and Currents Weather Stations Pressure Air Temp Water Temp Dewpoint Dewpoint Depression Visibility Wind Speed Wind Dir Waves Ship Positions

CG Hudson

Last reported at 2017-Sep-16 18:12 UTC. Time now 2017-Sep-26 11:14 UTC.
Position N 25°30' W 080°14'.
Warning: this ship's position is 9 days out of date.

Length 48 m; draft 2 m.

Type: Military. MMSI: 366999791.

Date/timePositionNaut miles runAvg speedWind from/ knotsBaromVisibWave heightAir tempDewpointWater temp
2017-Sep-16 18:12N 25°30' W 080°14'2 7.0
2017-Sep-16 17:58N 25°31' W 080°14'4 7.6
2017-Sep-16 17:30N 25°35' W 080°13'4 7.9
2017-Sep-16 17:00N 25°39' W 080°12'4 8.2
2017-Sep-16 16:30N 25°43' W 080°11'4 7.4
2017-Sep-16 16:01N 25°46' W 080°11'2 3.3
2017-Sep-16 15:24N 25°46' W 080°09'  
2017-Sep-13 21:12N 25°46' W 080°09'1 2.5
2017-Sep-13 21:00N 25°46' W 080°08'3 6.5
2017-Sep-13 20:30N 25°48' W 080°06'5 9.4
2017-Sep-13 20:00N 25°53' W 080°05'5 9.5
2017-Sep-13 19:29N 25°58' W 080°05'51 7.7
2017-Sep-13 12:51N 26°49' W 080°03'4 6.0
2017-Sep-13 12:17N 26°52' W 080°04'2 6.1
2017-Sep-13 12:00N 26°54' W 080°05'2 4.4
2017-Sep-13 11:30N 26°56' W 080°05'0 0.0
2017-Sep-13 11:00N 26°56' W 080°05'0 0.0
2017-Sep-13 10:30N 26°56' W 080°05'0 0.0
2017-Sep-13 09:57N 26°56' W 080°05'0 0.0
2017-Sep-13 09:30N 26°56' W 080°05'0 0.0
2017-Sep-13 09:00N 26°56' W 080°05'0 0.0
2017-Sep-13 08:27N 26°56' W 080°05'0 0.0
2017-Sep-13 07:57N 26°56' W 080°05'0 0.0
2017-Sep-13 07:30N 26°56' W 080°05'0 0.0
2017-Sep-13 07:00N 26°56' W 080°05'0 0.0
2017-Sep-13 06:30N 26°56' W 080°05'0 0.0
2017-Sep-13 05:59N 26°56' W 080°05'0 0.0
2017-Sep-13 05:26N 26°56' W 080°05'0 0.0
2017-Sep-13 04:56N 26°56' W 080°05'0 0.0
2017-Sep-13 04:27N 26°56' W 080°05'0 0.0
2017-Sep-13 03:57N 26°56' W 080°05'0 0.0
2017-Sep-13 03:30N 26°56' W 080°05'0 0.0
2017-Sep-13 02:54N 26°56' W 080°05'0 0.0
2017-Sep-13 02:27N 26°56' W 080°05'0 0.0
2017-Sep-13 02:00N 26°56' W 080°05'0 0.0
2017-Sep-13 01:27N 26°56' W 080°05'0 0.0
2017-Sep-13 00:54N 26°56' W 080°05'0 0.0
2017-Sep-13 00:30N 26°56' W 080°05'0 0.0
2017-Sep-12 23:57N 26°56' W 080°05'0 0.4
2017-Sep-12 23:30N 26°56' W 080°05'2 3.8
2017-Sep-12 23:00N 26°58' W 080°05'4 7.5
2017-Sep-12 22:30N 27°02' W 080°06'  
2017-Sep-07 21:20N 27°04' W 080°07'2 6.4
2017-Sep-07 21:01N 27°02' W 080°06'3 6.8
2017-Sep-07 20:30N 26°59' W 080°05'2 4.3
2017-Sep-07 20:00N 26°57' W 080°05'3 5.7
2017-Sep-07 19:31N 26°54' W 080°04'3 5.5
2017-Sep-07 18:54N 26°51' W 080°04'30 8.2
2017-Sep-07 15:13N 26°21' W 080°03'3 9.9
2017-Sep-07 14:58N 26°18' W 080°03'5 9.6
2017-Sep-07 14:29N 26°14' W 080°03'4 9.0
2017-Sep-07 14:00N 26°09' W 080°04'5 9.5
2017-Sep-07 13:30N 26°05' W 080°04'510.4
2017-Sep-07 13:00N 25°59' W 080°05'5 9.5
2017-Sep-07 12:30N 25°55' W 080°05'5 9.5
2017-Sep-07 12:00N 25°50' W 080°06'4 9.0
2017-Sep-07 11:31N 25°46' W 080°07'2 4.0
2017-Sep-07 10:59N 25°46' W 080°09'  

Dump ship's entire track history